Impacts TAF Board
For situational awareness. Not to be used for flight planning purposes.
IDs:

KAUS - Austin/Bergstrom Int, TX, US

Issued at 1132 UTC 14 Dec 2019
Updated at 1349 UTC 14 Dec 2019
Potential Impact None Slight Moderate High
Time1253Z 14/14Z 14/15Z 14/16Z 14/17Z 14/18Z 14/19Z 14/20Z 14/21Z 14/22Z 14/23Z 15/00Z 15/01Z 15/02Z>>
Type OBS PRVL PRVL PRVL PRVL PRVL PRVL PRVL PRVL PRVL PRVL PRVL PRVL PRVL
VIS 10 >6 >6 >6 >6 >6 >6 >6 >6 >6 >6 >6 >6 >6
CIG -- -- -- -- -- -- -- -- -- -- -- -- -- --
Cover CLR SKC SKC SKC SKC SKC SKC SKC SKC SKC SKC SKC SKC SKC
FltCat VFR VFR VFR VFR VFR VFR VFR VFR VFR VFR VFR VFR VFR VFR
WX -- -- -- -- -- -- -- -- -- -- -- -- -- --
WDir VRB 260 260 260 260 150 150 150 150 150 150 150 190 190
WSpd 0 3 3 3 3 9 9 9 9 9 9 9 5 5
WGst -- -- -- -- -- -- -- -- -- -- -- -- -- --
Raw TAF
KAUS 141132Z 1412/1518 26003KT P6SM SKC
  FM141800 15009KT P6SM SKC
  FM150100 19005KT P6SM SKC


Raw METAR
KAUS 141253Z 00000KT 10SM CLR 03/02 A2988 RMK AO2 SLP122 T00330017
KAUS 141153Z 00000KT 10SM CLR 05/03 A2986 RMK AO2 SLP113 T00500028 10083 20039 58002
KAUS 141053Z 26003KT 10SM CLR 05/03 A2986 RMK AO2 SLP111 T00500028

METAR Board
Radar Display
Forecast Discussion
For situational awareness. Not to be used for flight planning purposes.